sensor_id;sensor_type;location;lat;lon;timestamp;pressure;altitude;pressure_sealevel;temperature;humidity
48848;BME280;36611;51.638;5.784;2023-05-01T00:01:29;101684.66;;;23.03;38.26
48848;BME280;36611;51.638;5.784;2023-05-01T00:03:55;101680.22;;;23.02;38.53
48848;BME280;36611;51.638;5.784;2023-05-01T00:06:22;101675.59;;;23.03;38.26
48848;BME280;36611;51.638;5.784;2023-05-01T00:08:49;101670.09;;;23.03;38.17
48848;BME280;36611;51.638;5.784;2023-05-01T00:11:15;101665.47;;;23.03;38.58
48848;BME280;36611;51.638;5.784;2023-05-01T00:13:42;101665.47;;;23.03;38.48
48848;BME280;36611;51.638;5.784;2023-05-01T00:16:10;101663.78;;;23.02;38.16
48848;BME280;36611;51.638;5.784;2023-05-01T00:18:37;101657.44;;;23.02;38.58
48848;BME280;36611;51.638;5.784;2023-05-01T00:21:04;101654.69;;;23.02;38.60
48848;BME280;36611;51.638;5.784;2023-05-01T00:23:30;101647.31;;;23.02;38.61
48848;BME280;36611;51.638;5.784;2023-05-01T00:25:57;101646.47;;;23.02;38.38
48848;BME280;36611;51.638;5.784;2023-05-01T00:28:24;101646.47;;;23.02;38.42
48848;BME280;36611;51.638;5.784;2023-05-01T00:30:50;101641.84;;;23.02;38.34
48848;BME280;36611;51.638;5.784;2023-05-01T00:33:17;101643.72;;;23.02;38.53
48848;BME280;36611;51.638;5.784;2023-05-01T00:35:45;101636.38;;;23.02;38.58
48848;BME280;36611;51.638;5.784;2023-05-01T00:38:11;101639.97;;;23.03;38.53
48848;BME280;36611;51.638;5.784;2023-05-01T00:40:42;101631.75;;;23.03;38.57
48848;BME280;36611;51.638;5.784;2023-05-01T00:43:10;101632.78;;;23.02;38.33
48848;BME280;36611;51.638;5.784;2023-05-01T00:45:38;101636.38;;;23.02;38.24
48848;BME280;36611;51.638;5.784;2023-05-01T00:48:05;101624.56;;;23.02;38.75
48848;BME280;36611;51.638;5.784;2023-05-01T00:50:32;101613.59;;;23.02;38.43
48848;BME280;36611;51.638;5.784;2023-05-01T00:52:59;101618.22;;;23.01;38.63
48848;BME280;36611;51.638;5.784;2023-05-01T00:55:26;101614.63;;;23.01;38.59
48848;BME280;36611;51.638;5.784;2023-05-01T00:57:53;101616.34;;;23.02;38.70
48848;BME280;36611;51.638;5.784;2023-05-01T01:00:21;101616.34;;;23.02;38.46
48848;BME280;36611;51.638;5.784;2023-05-01T01:02:49;101606.41;;;23.01;38.37
48848;BME280;36611;51.638;5.784;2023-05-01T01:05:17;101610.84;;;23.02;38.49
48848;BME280;36611;51.638;5.784;2023-05-01T01:07:52;101602.63;;;23.02;38.64
48848;BME280;36611;51.638;5.784;2023-05-01T01:14:18;101589.13;;;23.00;38.45
48848;BME280;36611;51.638;5.784;2023-05-01T01:16:53;101588.44;;;22.98;38.34
48848;BME280;36611;51.638;5.784;2023-05-01T01:19:57;101581.06;;;22.99;38.56
48848;BME280;36611;51.638;5.784;2023-05-01T01:22:25;101588.44;;;22.98;38.40
48848;BME280;36611;51.638;5.784;2023-05-01T01:25:04;101582.94;;;22.98;38.44
48848;BME280;36611;51.638;5.784;2023-05-01T01:36:02;101566.50;;;22.98;38.48
48848;BME280;36611;51.638;5.784;2023-05-01T01:38:39;101567.53;;;22.97;38.67
48848;BME280;36611;51.638;5.784;2023-05-01T01:41:11;101557.44;;;22.98;38.51
48848;BME280;36611;51.638;5.784;2023-05-01T01:44:00;101562.06;;;22.97;38.69
48848;BME280;36611;51.638;5.784;2023-05-01T01:46:29;101555.72;;;22.97;38.63
48848;BME280;36611;51.638;5.784;2023-05-01T01:49:00;101551.09;;;22.97;38.47
48848;BME280;36611;51.638;5.784;2023-05-01T01:51:29;101546.47;;;22.98;38.31
48848;BME280;36611;51.638;5.784;2023-05-01T01:53:59;101546.47;;;22.98;38.67
48848;BME280;36611;51.638;5.784;2023-05-01T01:56:26;101550.06;;;22.98;38.42
48848;BME280;36611;51.638;5.784;2023-05-01T01:58:55;101541.84;;;22.98;38.59
48848;BME280;36611;51.638;5.784;2023-05-01T02:01:22;101539.97;;;22.99;38.58
48848;BME280;36611;51.638;5.784;2023-05-01T02:03:50;101539.97;;;22.99;38.29
48848;BME280;36611;51.638;5.784;2023-05-01T02:06:20;101535.53;;;22.98;38.55
48848;BME280;36611;51.638;5.784;2023-05-01T02:08:48;101527.31;;;22.98;38.60
48848;BME280;36611;51.638;5.784;2023-05-01T02:11:19;101528.16;;;22.98;38.51
48848;BME280;36611;51.638;5.784;2023-05-01T02:13:48;101526.28;;;22.99;38.18
48848;BME280;36611;51.638;5.784;2023-05-01T02:16:16;101527.31;;;22.98;38.49
48848;BME280;36611;51.638;5.784;2023-05-01T02:18:45;101519.25;;;22.96;38.37
48848;BME280;36611;51.638;5.784;2023-05-01T02:21:13;101517.38;;;22.97;38.28
48848;BME280;36611;51.638;5.784;2023-05-01T02:23:40;101519.09;;;22.98;38.66
48848;BME280;36611;51.638;5.784;2023-05-01T02:26:12;101504.53;;;22.97;38.71
48848;BME280;36611;51.638;5.784;2023-05-01T02:28:42;101516.88;;;22.93;38.51
48848;BME280;36611;51.638;5.784;2023-05-01T02:31:09;101512.41;;;22.92;38.67
48848;BME280;36611;51.638;5.784;2023-05-01T02:33:36;101511.38;;;22.93;38.33
48848;BME280;36611;51.638;5.784;2023-05-01T02:36:02;101498.38;;;22.95;38.42
48848;BME280;36611;51.638;5.784;2023-05-01T02:38:31;101501.13;;;22.95;38.44
48848;BME280;36611;51.638;5.784;2023-05-01T02:40:59;101497.53;;;22.95;38.63
48848;BME280;36611;51.638;5.784;2023-05-01T02:43:27;101501.13;;;22.95;38.76
48848;BME280;36611;51.638;5.784;2023-05-01T02:45:56;101500.25;;;22.95;38.76
48848;BME280;36611;51.638;5.784;2023-05-01T02:48:26;101491.19;;;22.94;38.76
48848;BME280;36611;51.638;5.784;2023-05-01T02:50:53;101498.38;;;22.95;38.54
48848;BME280;36611;51.638;5.784;2023-05-01T02:53:21;101492.03;;;22.95;38.58
48848;BME280;36611;51.638;5.784;2023-05-01T02:55:52;101487.41;;;22.95;38.93
48848;BME280;36611;51.638;5.784;2023-05-01T02:58:19;101488.28;;;22.96;38.37
48848;BME280;36611;51.638;5.784;2023-05-01T03:00:48;101476.47;;;22.95;38.42
48848;BME280;36611;51.638;5.784;2023-05-01T03:03:16;101472.88;;;22.95;38.62
48848;BME280;36611;51.638;5.784;2023-05-01T03:05:43;101469.28;;;22.94;38.45
48848;BME280;36611;51.638;5.784;2023-05-01T03:08:09;101471.16;;;22.94;38.50
48848;BME280;36611;51.638;5.784;2023-05-01T03:10:40;101468.25;;;22.95;38.36
48848;BME280;36611;51.638;5.784;2023-05-01T03:13:10;101469.28;;;22.94;38.80
48848;BME280;36611;51.638;5.784;2023-05-01T03:15:37;101469.28;;;22.94;38.30
48848;BME280;36611;51.638;5.784;2023-05-01T03:18:04;101469.28;;;22.94;38.48
48848;BME280;36611;51.638;5.784;2023-05-01T03:20:31;101463.78;;;22.94;38.69
48848;BME280;36611;51.638;5.784;2023-05-01T03:22:57;101468.41;;;22.94;38.37
48848;BME280;36611;51.638;5.784;2023-05-01T03:25:24;101454.72;;;22.94;38.50
48848;BME280;36611;51.638;5.784;2023-05-01T03:27:51;101457.47;;;22.94;38.56
48848;BME280;36611;51.638;5.784;2023-05-01T03:30:21;101453.88;;;22.93;38.47
48848;BME280;36611;51.638;5.784;2023-05-01T03:32:48;101446.69;;;22.92;38.74
48848;BME280;36611;51.638;5.784;2023-05-01T03:35:22;101444.78;;;22.93;38.50
48848;BME280;36611;51.638;5.784;2023-05-01T03:37:49;101443.09;;;22.92;38.58
48848;BME280;36611;51.638;5.784;2023-05-01T03:40:35;101434.88;;;22.92;38.81
48848;BME280;36611;51.638;5.784;2023-05-01T03:43:41;101440.53;;;22.90;38.69
48848;BME280;36611;51.638;5.784;2023-05-01T03:46:16;101431.44;;;22.90;38.35
48848;BME280;36611;51.638;5.784;2023-05-01T03:48:43;101433.16;;;22.91;38.70
48848;BME280;36611;51.638;5.784;2023-05-01T03:51:10;101429.38;;;22.92;38.56
48848;BME280;36611;51.638;5.784;2023-05-01T03:53:37;101425.78;;;22.91;38.64
48848;BME280;36611;51.638;5.784;2023-05-01T03:56:05;101424.78;;;22.92;38.85
48848;BME280;36611;51.638;5.784;2023-05-01T03:58:32;101424.78;;;22.92;38.50
48848;BME280;36611;51.638;5.784;2023-05-01T04:00:58;101427.50;;;22.92;38.61
48848;BME280;36611;51.638;5.784;2023-05-01T04:03:26;101423.91;;;22.92;38.49
48848;BME280;36611;51.638;5.784;2023-05-01T04:05:54;101421.00;;;22.93;38.68
48848;BME280;36611;51.638;5.784;2023-05-01T04:08:21;101427.50;;;22.92;38.74
48848;BME280;36611;51.638;5.784;2023-05-01T04:10:47;101422.03;;;22.92;38.61
48848;BME280;36611;51.638;5.784;2023-05-01T04:13:14;101417.41;;;22.93;38.70
48848;BME280;36611;51.638;5.784;2023-05-01T04:15:44;101411.94;;;22.93;38.51
48848;BME280;36611;51.638;5.784;2023-05-01T04:18:14;101423.75;;;22.93;38.67
48848;BME280;36611;51.638;5.784;2023-05-01T04:20:41;101421.00;;;22.93;38.85
48848;BME280;36611;51.638;5.784;2023-05-01T04:23:07;101425.63;;;22.93;38.43
48848;BME280;36611;51.638;5.784;2023-05-01T04:25:35;101422.88;;;22.93;38.50
48848;BME280;36611;51.638;5.784;2023-05-01T04:28:11;101419.28;;;22.92;38.67
48848;BME280;36611;51.638;5.784;2023-05-01T04:30:38;101419.28;;;22.92;38.58
48848;BME280;36611;51.638;5.784;2023-05-01T04:33:05;101414.84;;;22.91;38.40
48848;BME280;36611;51.638;5.784;2023-05-01T04:35:38;101407.47;;;22.92;38.76
48848;BME280;36611;51.638;5.784;2023-05-01T04:38:05;101409.38;;;22.91;38.68
48848;BME280;36611;51.638;5.784;2023-05-01T04:40:32;101407.47;;;22.92;38.68
48848;BME280;36611;51.638;5.784;2023-05-01T04:42:59;101411.06;;;22.92;38.68
48848;BME280;36611;51.638;5.784;2023-05-01T04:45:26;101409.38;;;22.91;38.56
48848;BME280;36611;51.638;5.784;2023-05-01T04:47:53;101404.75;;;22.92;38.50
48848;BME280;36611;51.638;5.784;2023-05-01T04:50:20;101408.34;;;22.92;38.80
48848;BME280;36611;51.638;5.784;2023-05-01T04:52:47;101415.69;;;22.92;38.43
48848;BME280;36611;51.638;5.784;2023-05-01T04:55:14;101410.22;;;22.92;38.59
48848;BME280;36611;51.638;5.784;2023-05-01T04:58:07;101414.00;;;22.91;38.46
48848;BME280;36611;51.638;5.784;2023-05-01T05:00:34;101414.00;;;22.91;38.74
48848;BME280;36611;51.638;5.784;2023-05-01T05:03:03;101406.63;;;22.91;38.32
48848;BME280;36611;51.638;5.784;2023-05-01T05:05:30;101404.91;;;22.90;38.57
48848;BME280;36611;51.638;5.784;2023-05-01T05:07:56;101405.78;;;22.91;38.41
48848;BME280;36611;51.638;5.784;2023-05-01T05:10:28;101400.47;;;22.89;38.67
48848;BME280;36611;51.638;5.784;2023-05-01T05:13:28;101405.94;;;22.89;38.57
48848;BME280;36611;51.638;5.784;2023-05-01T05:15:59;101403.22;;;22.89;38.58
48848;BME280;36611;51.638;5.784;2023-05-01T05:18:26;101409.53;;;22.90;38.45
48848;BME280;36611;51.638;5.784;2023-05-01T05:20:54;101409.53;;;22.90;38.60
48848;BME280;36611;51.638;5.784;2023-05-01T05:23:20;101408.69;;;22.89;38.30
48848;BME280;36611;51.638;5.784;2023-05-01T05:25:47;101415.03;;;22.90;38.56
48848;BME280;36611;51.638;5.784;2023-05-01T05:28:13;101412.28;;;22.90;38.28
48848;BME280;36611;51.638;5.784;2023-05-01T05:30:41;101407.66;;;22.90;38.62
48848;BME280;36611;51.638;5.784;2023-05-01T05:33:11;101415.88;;;22.90;38.84
48848;BME280;36611;51.638;5.784;2023-05-01T05:35:38;101418.59;;;22.90;38.40
48848;BME280;36611;51.638;5.784;2023-05-01T05:38:05;101427.69;;;22.91;38.48
48848;BME280;36611;51.638;5.784;2023-05-01T05:40:35;101431.44;;;22.90;38.66
48848;BME280;36611;51.638;5.784;2023-05-01T05:43:01;101429.56;;;22.90;38.40
48848;BME280;36611;51.638;5.784;2023-05-01T05:45:32;101423.22;;;22.90;38.48
48848;BME280;36611;51.638;5.784;2023-05-01T05:47:59;101421.34;;;22.90;38.48
48848;BME280;36611;51.638;5.784;2023-05-01T05:50:28;101425.78;;;22.91;38.52
48848;BME280;36611;51.638;5.784;2023-05-01T05:52:56;101423.22;;;22.90;38.60
48848;BME280;36611;51.638;5.784;2023-05-01T05:55:22;101423.22;;;22.90;38.32
48848;BME280;36611;51.638;5.784;2023-05-01T05:57:59;101416.91;;;22.89;38.51
48848;BME280;36611;51.638;5.784;2023-05-01T06:00:26;101421.53;;;22.89;38.58
48848;BME280;36611;51.638;5.784;2023-05-01T06:02:54;101420.50;;;22.90;38.70
48848;BME280;36611;51.638;5.784;2023-05-01T06:05:24;101411.44;;;22.89;38.46
48848;BME280;36611;51.638;5.784;2023-05-01T06:07:51;101411.44;;;22.89;38.64
48848;BME280;36611;51.638;5.784;2023-05-01T06:10:17;101412.28;;;22.90;38.38
48848;BME280;36611;51.638;5.784;2023-05-01T06:12:44;101411.44;;;22.89;38.35
48848;BME280;36611;51.638;5.784;2023-05-01T06:15:27;101414.34;;;22.88;38.47
48848;BME280;36611;51.638;5.784;2023-05-01T06:17:55;101418.78;;;22.89;38.40
48848;BME280;36611;51.638;5.784;2023-05-01T06:20:22;101415.19;;;22.88;38.64
48848;BME280;36611;51.638;5.784;2023-05-01T06:22:49;101409.72;;;22.88;38.90
48848;BME280;36611;51.638;5.784;2023-05-01T06:25:21;101406.13;;;22.88;38.67
48848;BME280;36611;51.638;5.784;2023-05-01T06:27:49;101403.38;;;22.88;38.45
48848;BME280;36611;51.638;5.784;2023-05-01T06:30:17;101406.13;;;22.88;38.35
48848;BME280;36611;51.638;5.784;2023-05-01T06:32:47;101412.63;;;22.87;38.60
48848;BME280;36611;51.638;5.784;2023-05-01T06:35:15;101407.16;;;22.87;38.36
48848;BME280;36611;51.638;5.784;2023-05-01T06:37:41;101409.88;;;22.87;38.61
48848;BME280;36611;51.638;5.784;2023-05-01T06:40:10;101406.28;;;22.86;38.83
48848;BME280;36611;51.638;5.784;2023-05-01T06:42:38;101407.16;;;22.87;38.61
48848;BME280;36611;51.638;5.784;2023-05-01T06:45:06;101406.28;;;22.86;38.50
48848;BME280;36611;51.638;5.784;2023-05-01T06:47:33;101405.28;;;22.87;38.47
48848;BME280;36611;51.638;5.784;2023-05-01T06:50:01;101402.72;;;22.86;38.82
48848;BME280;36611;51.638;5.784;2023-05-01T06:52:32;101407.16;;;22.87;38.64
48848;BME280;36611;51.638;5.784;2023-05-01T06:54:58;101408.19;;;22.86;38.49
48848;BME280;36611;51.638;5.784;2023-05-01T06:57:25;101406.28;;;22.86;38.54
48848;BME280;36611;51.638;5.784;2023-05-01T06:59:51;101405.44;;;22.86;38.56
48848;BME280;36611;51.638;5.784;2023-05-01T07:02:19;101401.84;;;22.85;38.61
48848;BME280;36611;51.638;5.784;2023-05-01T07:04:46;101402.72;;;22.86;38.73
48848;BME280;36611;51.638;5.784;2023-05-01T07:07:13;101401.84;;;22.85;38.77
48848;BME280;36611;51.638;5.784;2023-05-01T07:09:39;101398.94;;;22.87;38.57
48848;BME280;36611;51.638;5.784;2023-05-01T07:12:06;101398.09;;;22.86;38.39
48848;BME280;36611;51.638;5.784;2023-05-01T07:14:34;101398.09;;;22.86;38.50
48848;BME280;36611;51.638;5.784;2023-05-01T07:17:02;101404.41;;;22.87;38.54
48848;BME280;36611;51.638;5.784;2023-05-01T07:19:29;101396.19;;;22.87;38.64
48848;BME280;36611;51.638;5.784;2023-05-01T07:21:55;101397.06;;;22.87;38.33
48848;BME280;36611;51.638;5.784;2023-05-01T07:24:22;101397.06;;;22.87;38.59
48848;BME280;36611;51.638;5.784;2023-05-01T07:26:49;101396.19;;;22.87;38.77
48848;BME280;36611;51.638;5.784;2023-05-01T07:29:15;101385.25;;;22.87;38.68
48848;BME280;36611;51.638;5.784;2023-05-01T07:31:42;101398.94;;;22.87;38.78
48848;BME280;36611;51.638;5.784;2023-05-01T07:34:10;101398.09;;;22.86;38.60
48848;BME280;36611;51.638;5.784;2023-05-01T07:36:37;101388.84;;;22.87;38.47
48848;BME280;36611;51.638;5.784;2023-05-01T07:39:04;101390.53;;;22.88;38.63
48848;BME280;36611;51.638;5.784;2023-05-01T07:41:31;101385.25;;;22.87;38.63
48848;BME280;36611;51.638;5.784;2023-05-01T07:43:58;101389.69;;;22.88;38.41
48848;BME280;36611;51.638;5.784;2023-05-01T07:46:25;101388.66;;;22.89;38.69
48848;BME280;36611;51.638;5.784;2023-05-01T07:48:52;101393.28;;;22.88;38.63
48848;BME280;36611;51.638;5.784;2023-05-01T07:51:19;101387.81;;;22.88;38.24
48848;BME280;36611;51.638;5.784;2023-05-01T07:53:45;101389.69;;;22.88;38.75
48848;BME280;36611;51.638;5.784;2023-05-01T07:56:12;101391.41;;;22.89;38.39
48848;BME280;36611;51.638;5.784;2023-05-01T07:58:39;101386.94;;;22.88;38.58
48848;BME280;36611;51.638;5.784;2023-05-01T08:01:07;101392.44;;;22.88;38.78
48848;BME280;36611;51.638;5.784;2023-05-01T08:03:34;101398.75;;;22.88;38.73
48848;BME280;36611;51.638;5.784;2023-05-01T08:06:01;101392.25;;;22.89;38.89
48848;BME280;36611;51.638;5.784;2023-05-01T08:08:28;101395.00;;;22.89;38.79
48848;BME280;36611;51.638;5.784;2023-05-01T08:10:54;101392.25;;;22.89;38.36
48848;BME280;36611;51.638;5.784;2023-05-01T08:13:21;101391.22;;;22.90;38.65
48848;BME280;36611;51.638;5.784;2023-05-01T08:15:51;101385.75;;;22.90;38.50
48848;BME280;36611;51.638;5.784;2023-05-01T08:18:18;101393.97;;;22.90;38.79
48848;BME280;36611;51.638;5.784;2023-05-01T08:20:47;101383.00;;;22.90;38.74
48848;BME280;36611;51.638;5.784;2023-05-01T08:23:16;101386.59;;;22.91;38.71
48848;BME280;36611;51.638;5.784;2023-05-01T08:25:44;101381.13;;;22.91;38.54
48848;BME280;36611;51.638;5.784;2023-05-01T08:28:17;101382.16;;;22.90;38.66
48848;BME280;36611;51.638;5.784;2023-05-01T08:30:46;101380.25;;;22.90;38.29
48848;BME280;36611;51.638;5.784;2023-05-01T08:33:14;101381.13;;;22.91;38.38
48848;BME280;36611;51.638;5.784;2023-05-01T08:35:42;101381.97;;;22.91;38.40
48848;BME280;36611;51.638;5.784;2023-05-01T08:38:10;101376.50;;;22.91;38.66
48848;BME280;36611;51.638;5.784;2023-05-01T08:40:37;101376.50;;;22.91;38.54
48848;BME280;36611;51.638;5.784;2023-05-01T08:43:04;101377.34;;;22.92;38.50
48848;BME280;36611;51.638;5.784;2023-05-01T08:45:33;101378.19;;;22.92;38.49
48848;BME280;36611;51.638;5.784;2023-05-01T08:48:06;101379.91;;;22.93;38.62
48848;BME280;36611;51.638;5.784;2023-05-01T08:50:37;101386.41;;;22.92;38.44
48848;BME280;36611;51.638;5.784;2023-05-01T08:53:05;101380.09;;;22.92;38.74
48848;BME280;36611;51.638;5.784;2023-05-01T08:55:33;101384.53;;;22.93;38.29
48848;BME280;36611;51.638;5.784;2023-05-01T08:58:00;101387.28;;;22.93;38.51
48848;BME280;36611;51.638;5.784;2023-05-01T09:00:27;101383.50;;;22.94;38.55
48848;BME280;36611;51.638;5.784;2023-05-01T09:02:55;101382.66;;;22.93;38.59
48848;BME280;36611;51.638;5.784;2023-05-01T09:05:23;101380.75;;;22.94;38.59
48848;BME280;36611;51.638;5.784;2023-05-01T09:07:50;101374.44;;;22.93;38.62
48848;BME280;36611;51.638;5.784;2023-05-01T09:10:17;101375.28;;;22.94;38.74
48848;BME280;36611;51.638;5.784;2023-05-01T09:12:48;101379.72;;;22.95;38.72
48848;BME280;36611;51.638;5.784;2023-05-01T09:15:17;101384.34;;;22.94;38.48
48848;BME280;36611;51.638;5.784;2023-05-01T09:17:44;101379.72;;;22.95;38.60
48848;BME280;36611;51.638;5.784;2023-05-01T09:20:11;101382.47;;;22.95;38.57
48848;BME280;36611;51.638;5.784;2023-05-01T09:22:38;101375.09;;;22.95;38.39
48848;BME280;36611;51.638;5.784;2023-05-01T09:25:05;101380.59;;;22.95;38.80
48848;BME280;36611;51.638;5.784;2023-05-01T09:27:35;101379.56;;;22.96;38.68
48848;BME280;36611;51.638;5.784;2023-05-01T09:30:03;101379.56;;;22.96;38.27
48848;BME280;36611;51.638;5.784;2023-05-01T09:32:31;101376.81;;;22.96;38.51
48848;BME280;36611;51.638;5.784;2023-05-01T09:35:11;101369.44;;;22.97;38.44
48848;BME280;36611;51.638;5.784;2023-05-01T09:37:39;101371.34;;;22.96;38.75
48848;BME280;36611;51.638;5.784;2023-05-01T09:42:48;101371.16;;;22.98;38.53
48848;BME280;36611;51.638;5.784;2023-05-01T09:45:16;101373.91;;;22.98;38.37
48848;BME280;36611;51.638;5.784;2023-05-01T09:47:45;101363.81;;;22.98;38.71
48848;BME280;36611;51.638;5.784;2023-05-01T09:50:28;101368.25;;;22.99;38.36
48848;BME280;36611;51.638;5.784;2023-05-01T09:52:55;101369.28;;;22.98;38.41
48848;BME280;36611;51.638;5.784;2023-05-01T09:55:22;101374.75;;;22.98;38.32
48848;BME280;36611;51.638;5.784;2023-05-01T09:57:51;101372.88;;;22.99;38.36
48848;BME280;36611;51.638;5.784;2023-05-01T10:00:18;101373.72;;;22.99;38.67
48848;BME280;36611;51.638;5.784;2023-05-01T10:02:48;101377.31;;;23.00;38.50
48848;BME280;36611;51.638;5.784;2023-05-01T10:05:15;101381.75;;;23.01;38.40
48848;BME280;36611;51.638;5.784;2023-05-01T10:08:01;101378.84;;;23.02;38.46
48848;BME280;36611;51.638;5.784;2023-05-01T10:10:29;101379.03;;;23.01;38.51
48848;BME280;36611;51.638;5.784;2023-05-01T10:13:11;101379.88;;;23.01;38.54
48848;BME280;36611;51.638;5.784;2023-05-01T10:15:38;101378.00;;;23.02;38.61
48848;BME280;36611;51.638;5.784;2023-05-01T10:18:06;101376.97;;;23.03;38.81
48848;BME280;36611;51.638;5.784;2023-05-01T10:20:35;101378.72;;;23.04;38.63
48848;BME280;36611;51.638;5.784;2023-05-01T10:23:01;101368.75;;;23.03;38.42
48848;BME280;36611;51.638;5.784;2023-05-01T10:25:31;101372.19;;;23.05;38.44
48848;BME280;36611;51.638;5.784;2023-05-01T10:28:01;101373.06;;;23.05;38.61
48848;BME280;36611;51.638;5.784;2023-05-01T10:30:29;101366.72;;;23.05;38.67
48848;BME280;36611;51.638;5.784;2023-05-01T10:32:57;101367.56;;;23.05;38.35
48848;BME280;36611;51.638;5.784;2023-05-01T10:35:27;101365.69;;;23.06;38.64
48848;BME280;36611;51.638;5.784;2023-05-01T10:38:01;101365.50;;;23.07;38.25
48848;BME280;36611;51.638;5.784;2023-05-01T10:45:39;101363.78;;;23.06;38.26
48848;BME280;36611;51.638;5.784;2023-05-01T10:48:06;101364.66;;;23.07;38.65
48848;BME280;36611;51.638;5.784;2023-05-01T10:50:33;101367.22;;;23.08;38.68
48848;BME280;36611;51.638;5.784;2023-05-01T10:55:47;101364.28;;;23.10;38.17
48848;BME280;36611;51.638;5.784;2023-05-01T11:04:52;101356.06;;;23.10;38.48
48848;BME280;36611;51.638;5.784;2023-05-01T11:09:41;101353.34;;;23.10;38.30
48848;BME280;36611;51.638;5.784;2023-05-01T11:12:09;101347.84;;;23.10;38.35
48848;BME280;36611;51.638;5.784;2023-05-01T11:20:10;101352.13;;;23.12;38.46
48848;BME280;36611;51.638;5.784;2023-05-01T11:22:39;101344.75;;;23.13;38.32
48848;BME280;36611;51.638;5.784;2023-05-01T11:25:19;101341.00;;;23.14;38.50
48848;BME280;36611;51.638;5.784;2023-05-01T11:27:47;101347.50;;;23.13;38.64
48848;BME280;36611;51.638;5.784;2023-05-01T11:30:15;101347.31;;;23.14;38.34
48848;BME280;36611;51.638;5.784;2023-05-01T11:32:43;101343.53;;;23.16;38.24
48848;BME280;36611;51.638;5.784;2023-05-01T11:35:28;101342.50;;;23.17;38.46
48848;BME280;36611;51.638;5.784;2023-05-01T11:37:55;101335.31;;;23.16;38.32
48848;BME280;36611;51.638;5.784;2023-05-01T11:40:24;101340.63;;;23.17;38.09
48848;BME280;36611;51.638;5.784;2023-05-01T11:43:02;101339.59;;;23.18;38.39
48848;BME280;36611;51.638;5.784;2023-05-01T11:45:30;101343.38;;;23.17;38.42
48848;BME280;36611;51.638;5.784;2023-05-01T11:47:57;101342.34;;;23.18;38.52
48848;BME280;36611;51.638;5.784;2023-05-01T11:50:32;101344.03;;;23.19;38.26
48848;BME280;36611;51.638;5.784;2023-05-01T11:53:01;101344.03;;;23.19;38.51
48848;BME280;36611;51.638;5.784;2023-05-01T11:55:32;101348.50;;;23.20;38.59
48848;BME280;36611;51.638;5.784;2023-05-01T11:58:00;101335.81;;;23.19;38.27
48848;BME280;36611;51.638;5.784;2023-05-01T12:00:28;101337.53;;;23.20;38.13
48848;BME280;36611;51.638;5.784;2023-05-01T12:03:03;101343.88;;;23.21;38.32
48848;BME280;36611;51.638;5.784;2023-05-01T12:05:33;101343.00;;;23.20;38.38
48848;BME280;36611;51.638;5.784;2023-05-01T12:08:20;101335.63;;;23.21;38.45
48848;BME280;36611;51.638;5.784;2023-05-01T12:10:55;101340.28;;;23.20;38.37
48848;BME280;36611;51.638;5.784;2023-05-01T12:13:23;101336.69;;;23.20;38.55
48848;BME280;36611;51.638;5.784;2023-05-01T12:15:52;101340.28;;;23.20;38.63
48848;BME280;36611;51.638;5.784;2023-05-01T12:18:19;101343.88;;;23.21;38.33
48848;BME280;36611;51.638;5.784;2023-05-01T12:20:50;101345.56;;;23.22;38.36
48848;BME280;36611;51.638;5.784;2023-05-01T12:23:19;101339.25;;;23.21;38.56
48848;BME280;36611;51.638;5.784;2023-05-01T12:25:54;101335.63;;;23.21;38.26
48848;BME280;36611;51.638;5.784;2023-05-01T12:28:22;101342.84;;;23.22;38.22
48848;BME280;36611;51.638;5.784;2023-05-01T12:30:49;101339.06;;;23.23;38.21
48848;BME280;36611;51.638;5.784;2023-05-01T12:33:17;101342.66;;;23.23;38.33
48848;BME280;36611;51.638;5.784;2023-05-01T12:35:46;101341.78;;;23.23;38.33
48848;BME280;36611;51.638;5.784;2023-05-01T12:38:14;101343.69;;;23.22;38.42
48848;BME280;36611;51.638;5.784;2023-05-01T12:40:55;101341.63;;;23.24;38.06
48848;BME280;36611;51.638;5.784;2023-05-01T12:43:35;101335.28;;;23.24;38.53
48848;BME280;36611;51.638;5.784;2023-05-01T12:46:03;101335.28;;;23.24;38.20
48848;BME280;36611;51.638;5.784;2023-05-01T12:48:31;101335.28;;;23.24;38.41
48848;BME280;36611;51.638;5.784;2023-05-01T12:50:59;101347.94;;;23.25;38.41
48848;BME280;36611;51.638;5.784;2023-05-01T12:53:27;101348.81;;;23.25;38.29
48848;BME280;36611;51.638;5.784;2023-05-01T12:55:55;101337.84;;;23.25;38.35
48848;BME280;36611;51.638;5.784;2023-05-01T12:58:23;101346.91;;;23.26;38.22
48848;BME280;36611;51.638;5.784;2023-05-01T13:00:52;101349.66;;;23.26;38.14
48848;BME280;36611;51.638;5.784;2023-05-01T13:03:25;101354.09;;;23.27;38.38
48848;BME280;36611;51.638;5.784;2023-05-01T13:06:00;101354.97;;;23.27;38.50
48848;BME280;36611;51.638;5.784;2023-05-01T13:10:55;101355.81;;;23.28;38.12
48848;BME280;36611;51.638;5.784;2023-05-01T13:13:27;101357.53;;;23.29;38.42
48848;BME280;36611;51.638;5.784;2023-05-01T13:16:06;101352.91;;;23.29;38.48
48848;BME280;36611;51.638;5.784;2023-05-01T13:18:50;101356.50;;;23.30;38.11
48848;BME280;36611;51.638;5.784;2023-05-01T13:21:20;101355.63;;;23.29;38.23
48848;BME280;36611;51.638;5.784;2023-05-01T13:23:52;101359.22;;;23.30;38.22
48848;BME280;36611;51.638;5.784;2023-05-01T13:26:27;101365.56;;;23.30;38.18
48848;BME280;36611;51.638;5.784;2023-05-01T13:28:56;101365.56;;;23.30;38.42
48848;BME280;36611;51.638;5.784;2023-05-01T13:31:24;101349.97;;;23.31;38.30
48848;BME280;36611;51.638;5.784;2023-05-01T13:33:54;101367.28;;;23.31;38.22
48848;BME280;36611;51.638;5.784;2023-05-01T13:36:21;101368.97;;;23.32;38.28
48848;BME280;36611;51.638;5.784;2023-05-01T13:38:54;101374.47;;;23.32;38.37
48848;BME280;36611;51.638;5.784;2023-05-01T13:41:23;101374.28;;;23.34;38.49